Time;durP1;ratioP1;P1;durP2;ratioP2;P2;SDS_P1;SDS_P2;PMS_P1;PMS_P2;Temp;Humidity;BMP_temperature;BMP_pressure;BME280_temperature;BME280_humidity;BME280_pressure;Samples;Min_cycle;Max_cycle;Signal;HPM_P1;HPM_P2
2022/05/03 00:01:52;;;;;;;5.67;5.27;;;19.50;47.50;21.10;100882.00;;;;5007988;28;20187;-48
2022/05/03 00:05:06;;;;;;;6.17;5.67;;;19.50;47.50;21.00;100894.00;;;;5006990;28;20200;-47
2022/05/03 00:08:14;;;;;;;6.17;5.57;;;19.40;47.60;20.90;100886.00;;;;5010728;28;20203;-47
2022/05/03 00:11:06;;;;;;;6.30;5.80;;;19.50;47.60;20.90;100888.00;;;;5008558;28;20326;-49
2022/05/03 00:14:25;;;;;;;6.40;5.90;;;19.50;47.60;20.90;100896.00;;;;5007733;28;20531;-47
2022/05/03 00:16:50;;;;;;;6.53;5.93;;;19.20;48.00;20.80;100893.00;;;;5007931;28;20369;-48
2022/05/03 00:19:16;;;;;;;6.43;5.83;;;19.30;47.80;20.80;100896.00;;;;5008129;28;20171;-48
2022/05/03 00:21:42;;;;;;;6.27;5.77;;;19.30;47.20;20.80;100890.00;;;;5008951;28;20172;-48
2022/05/03 00:24:08;;;;;;;6.00;5.50;;;19.30;47.30;20.80;100885.00;;;;5008852;28;20194;-48
2022/05/03 00:26:34;;;;;;;6.57;5.90;;;19.40;47.50;20.80;100884.00;;;;5008998;28;20175;-48
2022/05/03 00:29:00;;;;;;;6.00;5.50;;;19.40;47.80;20.80;100881.00;;;;5009266;28;20196;-48
2022/05/03 00:31:27;;;;;;;6.90;6.30;;;19.40;47.90;20.80;100868.00;;;;5011158;28;20743;-47
2022/05/03 00:33:56;;;;;;;6.03;5.50;;;19.40;47.80;20.80;100878.00;;;;5009694;28;20210;-48
2022/05/03 00:36:22;;;;;;;7.07;6.10;;;19.40;47.50;20.80;100874.00;;;;5009161;28;20172;-47
2022/05/03 00:38:48;;;;;;;6.47;5.87;;;19.40;47.20;20.80;100874.00;;;;5008486;28;20222;-48
2022/05/03 00:41:30;;;;;;;6.50;5.90;;;19.40;47.40;20.70;100866.00;;;;5008692;28;20171;-47
2022/05/03 00:44:56;;;;;;;6.67;6.00;;;19.30;47.40;20.70;100869.00;;;;5008502;28;20195;-47
2022/05/03 00:47:33;;;;;;;9.90;6.80;;;19.30;47.80;20.60;100863.00;;;;5007601;28;20173;-49
2022/05/03 00:51:04;;;;;;;7.27;6.67;;;18.90;48.00;20.50;100871.00;;;;5007203;28;20187;-48
2022/05/03 00:53:43;;;;;;;7.50;6.90;;;18.70;48.60;20.40;100862.00;;;;4992366;28;20210;-48
2022/05/03 00:56:56;;;;;;;7.20;6.50;;;18.30;49.50;20.30;100869.00;;;;5006819;28;20171;-48
2022/05/03 00:59:43;;;;;;;7.07;6.53;;;18.20;49.80;20.20;100869.00;;;;5008019;28;20174;-48
2022/05/03 01:02:09;;;;;;;6.90;6.30;;;18.20;49.40;20.10;100879.00;;;;5006850;28;20632;-49
2022/05/03 01:05:01;;;;;;;7.10;6.50;;;18.10;49.80;20.10;100883.00;;;;5007019;28;20195;-47
2022/05/03 01:07:50;;;;;;;7.03;6.33;;;18.40;49.40;20.10;100884.00;;;;5007120;28;20172;-48
2022/05/03 01:10:20;;;;;;;6.10;5.50;;;18.50;49.00;20.10;100885.00;;;;5008488;28;20191;-48
2022/05/03 01:13:22;;;;;;;6.37;5.87;;;18.70;49.10;20.10;100883.00;;;;5008063;28;20244;-48
2022/05/03 01:15:53;;;;;;;6.83;6.23;;;18.80;48.60;20.10;100879.00;;;;5006583;28;20183;-48
2022/05/03 01:18:26;;;;;;;7.17;6.57;;;18.90;48.50;20.10;100870.00;;;;5006839;28;20206;-47
2022/05/03 01:21:33;;;;;;;6.87;6.17;;;19.00;48.40;20.10;100862.00;;;;5007062;28;20160;-48
2022/05/03 01:24:28;;;;;;;6.90;6.27;;;19.00;48.30;20.10;100861.00;;;;5007017;28;20194;-49
2022/05/03 01:27:42;;;;;;;6.40;5.90;;;19.00;48.30;20.10;100862.00;;;;5007886;28;20174;-48
2022/05/03 01:30:10;;;;;;;6.87;6.27;;;19.00;48.10;20.10;100852.00;;;;4996443;28;20250;-49
2022/05/03 01:32:36;;;;;;;7.00;6.40;;;18.90;47.70;20.10;100870.00;;;;5008110;28;20180;-48
2022/05/03 01:35:01;;;;;;;7.00;6.40;;;19.00;48.10;20.20;100867.00;;;;5006911;28;20577;-48
2022/05/03 01:37:57;;;;;;;6.53;5.93;;;18.90;47.60;20.20;100860.00;;;;5006287;28;20168;-48
2022/05/03 01:40:30;;;;;;;7.80;7.00;;;18.60;48.30;20.10;100798.00;;;;5006742;28;20179;-48
2022/05/03 01:43:13;;;;;;;6.87;6.27;;;18.60;48.70;20.10;100857.00;;;;5006592;28;20640;-48
2022/05/03 01:46:22;;;;;;;7.27;6.57;;;18.70;48.70;20.10;100861.00;;;;5006617;28;20190;-48
2022/05/03 01:52:38;;;;;;;6.87;6.23;;;18.70;48.30;20.00;100862.00;;;;5007783;28;20655;-48
2022/05/03 01:55:40;;;;;;;7.70;7.10;;;18.30;48.90;20.00;100858.00;;;;5006306;28;20192;-48
2022/05/03 01:58:29;;;;;;;7.73;7.13;;;18.20;48.70;19.90;100858.00;;;;5006106;28;20164;-48
2022/05/03 02:01:28;;;;;;;7.43;6.73;;;18.00;49.30;19.80;100861.00;;;;5007532;28;20715;-47
2022/05/03 02:04:30;;;;;;;6.43;5.93;;;17.90;49.90;19.70;100858.00;;;;5006235;28;20199;-48
2022/05/03 02:07:48;;;;;;;6.87;6.27;;;18.20;49.80;19.50;100873.00;;;;5006272;28;20171;-48
2022/05/03 02:11:04;;;;;;;6.10;5.60;;;18.40;49.00;19.70;100878.00;;;;5006094;28;20194;-48
2022/05/03 02:17:39;;;;;;;6.23;5.73;;;18.60;48.60;19.70;100870.00;;;;5007466;28;20214;-48
2022/05/03 02:20:51;;;;;;;6.07;5.57;;;18.70;48.50;19.70;100863.00;;;;5008434;28;20527;-52
2022/05/03 02:23:37;;;;;;;5.50;5.10;;;18.70;48.50;19.70;100860.00;;;;5019830;28;20690;-47
2022/05/03 02:26:30;;;;;;;5.83;5.30;;;18.70;48.50;19.70;100852.00;;;;5005872;28;20176;-48
2022/05/03 02:29:04;;;;;;;6.67;6.17;;;18.70;48.50;19.70;100860.00;;;;5009156;28;20563;-47
2022/05/03 02:31:58;;;;;;;6.70;6.10;;;18.70;48.50;19.70;100852.00;;;;5010178;28;20210;-47
2022/05/03 02:34:46;;;;;;;6.33;5.73;;;18.70;48.50;19.70;100856.00;;;;5009752;28;20332;-50
2022/05/03 02:37:22;;;;;;;5.97;5.47;;;18.70;48.50;19.70;100858.00;;;;5009727;28;20714;-48
2022/05/03 02:40:07;;;;;;;6.80;6.20;;;18.70;48.50;19.70;100852.00;;;;5011211;28;20167;-49
2022/05/03 02:42:33;;;;;;;6.23;5.63;;;18.70;48.50;19.70;100850.00;;;;5011025;28;20166;-47
2022/05/03 02:45:01;;;;;;;6.20;5.70;;;18.70;48.50;19.70;100857.00;;;;5010459;28;20190;-46
2022/05/03 02:47:51;;;;;;;5.63;5.23;;;18.60;48.30;19.60;100855.00;;;;5010273;28;20225;-48
2022/05/03 02:50:21;;;;;;;6.07;5.57;;;18.60;48.30;19.60;100865.00;;;;5009814;28;20203;-47
2022/05/03 02:52:54;;;;;;;7.20;6.60;;;18.60;48.40;19.60;100843.00;;;;5010719;28;20206;-48
2022/05/03 02:55:30;;;;;;;6.73;6.13;;;18.60;48.40;19.60;100854.00;;;;5009285;28;20215;-47
2022/05/03 02:58:07;;;;;;;6.63;6.10;;;18.60;48.50;19.60;100854.00;;;;5012159;28;20194;-46
2022/05/03 03:01:48;;;;;;;6.10;5.60;;;18.60;48.40;19.60;100859.00;;;;5010998;28;20179;-49
2022/05/03 03:04:54;;;;;;;7.00;6.40;;;18.60;48.30;19.60;100851.00;;;;5009849;28;20219;-48
2022/05/03 03:07:20;;;;;;;6.20;5.70;;;18.50;48.40;19.50;100858.00;;;;5010053;28;20183;-47
2022/05/03 03:10:04;;;;;;;6.50;5.97;;;18.50;48.30;19.50;100861.00;;;;5009055;28;20210;-49
2022/05/03 03:12:44;;;;;;;6.93;6.00;;;18.50;48.40;19.50;100856.00;;;;5009469;28;20247;-47
2022/05/03 03:15:10;;;;;;;5.53;5.13;;;18.50;48.60;19.50;100850.00;;;;5009057;28;20206;-48
2022/05/03 03:17:44;;;;;;;6.37;5.67;;;18.50;48.40;19.40;100855.00;;;;5009267;28;20198;-48
2022/05/03 03:20:13;;;;;;;7.07;6.10;;;18.40;48.80;19.40;100852.00;;;;5010075;28;20236;-49
2022/05/03 03:22:39;;;;;;;6.77;6.10;;;18.40;48.40;19.40;100853.00;;;;5010021;28;20178;-49
2022/05/03 03:25:07;;;;;;;6.53;5.50;;;18.40;48.30;19.40;100853.00;;;;5010280;28;20213;-50
2022/05/03 03:27:33;;;;;;;5.50;5.10;;;18.30;48.40;19.30;100862.00;;;;5008917;28;20189;-49
2022/05/03 03:30:01;;;;;;;5.83;5.27;;;18.30;48.40;19.30;100859.00;;;;5008574;28;20283;-49
2022/05/03 03:32:27;;;;;;;5.90;5.37;;;18.30;48.20;19.30;100856.00;;;;5008443;28;20756;-49
2022/05/03 03:34:54;;;;;;;6.07;5.10;;;18.30;48.30;19.30;100854.00;;;;5009772;28;20279;-49
2022/05/03 03:37:23;;;;;;;10.17;9.10;;;18.30;48.30;19.30;100799.00;;;;5009526;28;20197;-48
2022/05/03 03:39:49;;;;;;;9.30;8.40;;;18.30;48.40;19.30;100861.00;;;;5009304;28;20176;-49
2022/05/03 03:42:14;;;;;;;7.43;6.73;;;18.30;48.50;19.30;100857.00;;;;5009747;28;20175;-49
2022/05/03 03:44:40;;;;;;;6.63;5.97;;;18.30;48.60;19.20;100848.00;;;;5009370;28;20553;-49
2022/05/03 03:47:06;;;;;;;6.87;5.63;;;18.20;48.50;19.20;100865.00;;;;5007918;28;20183;-50
2022/05/03 03:49:32;;;;;;;5.80;5.30;;;18.20;48.70;19.20;100847.00;;;;5008255;28;20428;-50
2022/05/03 03:51:57;;;;;;;5.77;5.17;;;18.20;48.70;19.20;100845.00;;;;5008328;28;20401;-49
2022/05/03 03:54:24;;;;;;;5.77;5.20;;;18.10;48.70;19.20;100844.00;;;;5008330;28;20189;-49
2022/05/03 03:56:50;;;;;;;5.63;5.07;;;18.10;48.70;19.20;100846.00;;;;5007936;28;20270;-48
2022/05/03 03:59:16;;;;;;;5.60;5.07;;;18.00;48.60;19.20;100863.00;;;;5008386;28;20294;-48
2022/05/03 04:01:43;;;;;;;5.40;4.97;;;18.00;48.80;19.20;100851.00;;;;5007642;28;20224;-48
2022/05/03 04:04:08;;;;;;;6.43;5.00;;;18.00;48.80;19.10;100860.00;;;;5007633;28;20744;-48
2022/05/03 04:06:35;;;;;;;5.47;4.97;;;18.00;48.60;19.10;100861.00;;;;5008792;28;20264;-48
2022/05/03 04:09:01;;;;;;;5.20;4.70;;;18.00;48.60;19.10;100859.00;;;;5009400;28;20185;-48
2022/05/03 04:11:26;;;;;;;6.33;5.80;;;18.00;48.60;19.10;100862.00;;;;5008945;28;20200;-48
2022/05/03 04:13:52;;;;;;;5.03;4.63;;;18.00;48.60;19.10;100856.00;;;;5008982;28;20208;-49
2022/05/03 04:16:18;;;;;;;6.10;4.97;;;18.00;48.60;19.00;100873.00;;;;5008686;28;20206;-49
2022/05/03 04:18:46;;;;;;;5.37;4.97;;;18.00;48.60;19.00;100873.00;;;;5008849;28;20178;-49
2022/05/03 04:21:16;;;;;;;5.50;4.53;;;18.00;48.60;19.00;100878.00;;;;5008810;28;20219;-48
2022/05/03 04:23:45;;;;;;;5.30;4.50;;;17.90;48.50;19.00;100870.00;;;;5008833;28;20200;-49
2022/05/03 04:26:14;;;;;;;5.20;4.67;;;17.90;48.50;19.00;100880.00;;;;5008418;28;20715;-49
2022/05/03 04:28:40;;;;;;;4.87;4.47;;;18.00;48.60;18.90;100889.00;;;;5008927;28;20186;-49
2022/05/03 04:31:06;;;;;;;5.27;4.70;;;17.90;48.50;18.90;100884.00;;;;5008538;28;20303;-49
2022/05/03 04:33:32;;;;;;;5.77;4.77;;;18.00;48.50;18.90;100880.00;;;;5007737;28;20198;-49
2022/05/03 04:35:57;;;;;;;5.30;4.53;;;17.90;48.50;18.90;100884.00;;;;5008506;28;20184;-48
2022/05/03 04:38:23;;;;;;;4.60;4.20;;;17.90;48.50;18.90;100894.00;;;;5008544;28;20181;-49
2022/05/03 04:40:49;;;;;;;4.93;4.53;;;17.90;48.50;18.80;100883.00;;;;5008309;28;20194;-49
2022/05/03 04:43:14;;;;;;;4.80;4.40;;;17.90;49.10;18.80;100891.00;;;;4999313;28;20258;-49
2022/05/03 04:45:40;;;;;;;5.03;4.50;;;17.90;48.50;18.80;100894.00;;;;4993484;28;20541;-48
2022/05/03 04:48:06;;;;;;;4.73;4.33;;;17.90;48.80;18.80;100894.00;;;;4988369;28;20181;-49
2022/05/03 04:50:32;;;;;;;5.60;4.70;;;17.80;49.20;18.90;100886.00;;;;4989566;28;20197;-49
2022/05/03 04:52:58;;;;;;;4.90;4.50;;;17.90;49.20;18.80;100892.00;;;;4988792;28;20606;-49
2022/05/03 04:55:23;;;;;;;5.30;4.50;;;17.90;49.20;18.80;100899.00;;;;4988546;28;20169;-49
2022/05/03 04:57:50;;;;;;;9.90;4.10;;;17.90;49.00;18.80;100898.00;;;;4988278;28;20187;-48
2022/05/03 05:00:16;;;;;;;7.07;4.23;;;17.80;49.30;18.80;100899.00;;;;4988690;28;20223;-48
2022/05/03 05:02:42;;;;;;;11.40;4.90;;;17.80;49.30;18.80;100898.00;;;;4988449;28;20196;-50
2022/05/03 05:05:08;;;;;;;13.40;4.80;;;17.70;49.20;18.80;100898.00;;;;5003036;28;20211;-47
2022/05/03 05:07:34;;;;;;;11.17;7.10;;;17.70;49.60;18.70;100900.00;;;;4988281;28;20187;-50
2022/05/03 05:12:43;;;;;;;8.33;5.17;;;17.50;50.00;18.70;100908.00;;;;4988180;28;20172;-48
2022/05/03 05:15:10;;;;;;;10.43;4.97;;;17.30;50.30;18.70;100908.00;;;;4988028;28;20200;-53
2022/05/03 05:17:36;;;;;;;7.07;4.50;;;17.40;50.10;18.60;100903.00;;;;4988326;28;20226;-48
2022/05/03 05:20:01;;;;;;;7.23;4.80;;;17.50;49.90;18.60;100906.00;;;;4988377;28;20259;-49
2022/05/03 05:22:27;;;;;;;8.40;4.90;;;17.60;49.70;18.60;100915.00;;;;4988530;28;20637;-49
2022/05/03 05:24:53;;;;;;;6.67;4.97;;;17.50;49.60;18.60;100912.00;;;;4988331;28;20611;-49
2022/05/03 05:27:18;;;;;;;7.07;5.00;;;17.60;49.50;18.60;100910.00;;;;4989835;28;20173;-49
2022/05/03 05:29:44;;;;;;;6.37;4.70;;;17.60;49.40;18.50;100917.00;;;;4988065;28;20180;-49
2022/05/03 05:32:10;;;;;;;6.20;4.80;;;17.50;49.40;18.50;100901.00;;;;4987821;28;20180;-49
2022/05/03 05:34:35;;;;;;;7.53;4.87;;;17.60;49.40;18.50;100907.00;;;;4987303;28;20194;-49
2022/05/03 05:37:01;;;;;;;8.93;4.90;;;17.50;49.60;18.50;100907.00;;;;4987625;28;20174;-49
2022/05/03 05:39:27;;;;;;;5.90;4.83;;;17.50;49.80;18.50;100906.00;;;;4987720;28;20187;-48
2022/05/03 05:41:57;;;;;;;7.03;5.77;;;17.30;49.90;18.50;100907.00;;;;4987790;28;20180;-48
2022/05/03 05:44:23;;;;;;;5.87;4.83;;;17.10;50.30;18.50;100900.00;;;;4987323;28;20279;-48
2022/05/03 05:46:48;;;;;;;4.87;4.33;;;17.10;50.50;18.40;100912.00;;;;4986306;28;20172;-48
2022/05/03 05:49:14;;;;;;;5.20;4.60;;;17.10;50.40;18.40;100915.00;;;;4987608;28;20191;-48
2022/05/03 05:51:40;;;;;;;6.07;4.83;;;17.10;50.20;18.40;100911.00;;;;4988197;28;20204;-49
2022/05/03 05:54:05;;;;;;;5.90;4.70;;;17.00;50.30;18.40;100913.00;;;;4987353;28;20264;-48
2022/05/03 05:56:31;;;;;;;7.70;4.87;;;16.90;50.00;18.30;100909.00;;;;4987551;28;20168;-48
2022/05/03 05:58:57;;;;;;;4.37;3.97;;;16.80;50.50;18.30;100901.00;;;;4987789;28;20168;-49
2022/05/03 06:01:26;;;;;;;5.40;3.73;;;17.00;50.40;18.30;100905.00;;;;4987534;28;20549;-49
2022/05/03 06:03:52;;;;;;;6.37;4.97;;;16.70;50.80;18.00;100910.00;;;;4990895;28;20196;-49
2022/05/03 06:06:18;;;;;;;4.90;4.40;;;16.70;50.70;18.20;100923.00;;;;4991543;28;20183;-49
2022/05/03 06:08:43;;;;;;;7.03;5.13;;;16.80;50.70;18.20;100919.00;;;;4991740;28;20176;-49
2022/05/03 06:11:09;;;;;;;6.30;4.90;;;16.70;50.40;18.20;100920.00;;;;4991240;28;20597;-49
2022/05/03 06:13:35;;;;;;;4.40;4.00;;;16.60;50.50;18.20;100912.00;;;;4991319;28;20191;-48
2022/05/03 06:16:08;;;;;;;4.83;4.33;;;16.70;50.80;18.20;100920.00;;;;4989634;28;20716;-48
2022/05/03 06:18:34;;;;;;;4.87;4.47;;;16.80;50.20;18.20;100919.00;;;;4991441;28;20203;-49
2022/05/03 06:21:01;;;;;;;4.67;4.10;;;17.00;50.00;18.20;100921.00;;;;4991372;28;20181;-49
2022/05/03 06:23:27;;;;;;;4.60;4.30;;;17.00;50.00;18.20;100923.00;;;;4991115;28;20644;-49
2022/05/03 06:25:53;;;;;;;4.30;3.87;;;17.10;49.60;18.20;100922.00;;;;5005968;28;20181;-48
2022/05/03 06:28:19;;;;;;;5.43;4.40;;;17.10;49.80;18.20;100923.00;;;;4990098;28;20179;-49
2022/05/03 06:30:44;;;;;;;4.23;3.83;;;17.00;49.60;18.20;100930.00;;;;4991470;28;20290;-49
2022/05/03 06:33:10;;;;;;;4.67;4.20;;;17.10;49.70;18.20;100920.00;;;;4991184;28;20243;-49
2022/05/03 06:35:36;;;;;;;3.77;3.47;;;17.10;49.70;18.20;100932.00;;;;4991086;28;20260;-49
2022/05/03 06:38:02;;;;;;;4.97;3.80;;;17.20;49.60;18.20;100927.00;;;;4990789;28;20747;-49
2022/05/03 06:40:27;;;;;;;4.43;3.83;;;17.20;49.60;18.20;100860.00;;;;4991150;28;20185;-50
2022/05/03 06:42:54;;;;;;;4.30;3.87;;;17.20;49.70;18.30;100940.00;;;;4990867;28;20176;-49
2022/05/03 06:45:20;;;;;;;4.17;3.77;;;17.20;49.70;18.30;100938.00;;;;4991227;28;20169;-49
2022/05/03 06:47:48;;;;;;;4.50;3.90;;;17.20;49.60;18.30;100939.00;;;;4991024;28;20818;-48
2022/05/03 06:50:13;;;;;;;3.80;3.50;;;17.30;49.50;18.30;100935.00;;;;4991341;28;20207;-48
2022/05/03 06:52:39;;;;;;;4.30;3.80;;;17.30;49.50;18.30;100943.00;;;;4991500;28;20228;-48
2022/05/03 06:55:05;;;;;;;4.50;4.10;;;17.30;49.30;18.30;100948.00;;;;4990378;28;20676;-48
2022/05/03 06:57:31;;;;;;;4.37;3.97;;;17.30;49.40;18.30;100945.00;;;;4990776;28;20176;-49
2022/05/03 07:00:00;;;;;;;4.67;4.00;;;17.30;49.20;18.30;100951.00;;;;4990918;28;20179;-49
2022/05/03 07:02:31;;;;;;;4.17;3.67;;;17.30;49.50;18.30;100946.00;;;;4990110;28;20184;-48
2022/05/03 07:04:59;;;;;;;4.10;3.70;;;17.30;49.70;18.40;100957.00;;;;4990227;28;20698;-48
2022/05/03 07:07:28;;;;;;;5.63;4.33;;;17.30;49.70;18.40;100955.00;;;;4990321;28;20685;-48
2022/05/03 07:09:55;;;;;;;5.10;3.40;;;17.30;49.70;18.40;100955.00;;;;4990681;28;20176;-48
2022/05/03 07:12:20;;;;;;;3.83;3.43;;;17.30;49.70;18.40;100965.00;;;;4990352;28;20165;-48
2022/05/03 07:14:46;;;;;;;4.53;4.07;;;17.30;49.60;18.40;100957.00;;;;4989452;28;20196;-48
2022/05/03 07:22:45;;;;;;;4.53;4.00;;;17.30;49.70;18.40;100963.00;;;;4990162;28;20776;-48
2022/05/03 07:22:48;;;;;;;4.40;3.73;;;17.30;49.80;18.40;100968.00;;;;4990201;28;20203;-49
2022/05/03 07:25:16;;;;;;;4.50;4.10;;;17.30;49.80;18.40;100970.00;;;;4989856;28;20227;-47
2022/05/03 07:27:47;;;;;;;6.10;4.00;;;17.30;49.70;18.40;100970.00;;;;4989991;28;20202;-50
2022/05/03 07:30:16;;;;;;;3.60;3.30;;;17.30;49.40;18.30;100980.00;;;;4990089;28;20211;-48
2022/05/03 07:32:45;;;;;;;4.23;3.83;;;17.10;49.20;18.30;100967.00;;;;4990460;28;20173;-48
2022/05/03 07:35:11;;;;;;;3.87;3.57;;;17.20;49.80;18.30;100974.00;;;;4989685;28;20188;-49
2022/05/03 07:37:37;;;;;;;4.23;3.80;;;17.20;49.50;18.30;100973.00;;;;4990182;28;20196;-49
2022/05/03 07:40:04;;;;;;;3.70;3.40;;;17.30;49.60;18.30;100960.00;;;;4990148;28;20184;-49
2022/05/03 07:42:30;;;;;;;4.33;3.93;;;17.20;49.40;18.30;100970.00;;;;4989955;28;20179;-48
2022/05/03 07:44:56;;;;;;;6.07;3.50;;;17.30;49.50;18.30;100895.00;;;;4989467;28;20188;-49
2022/05/03 07:47:21;;;;;;;4.33;3.40;;;17.30;49.10;18.40;100968.00;;;;4988480;28;20214;-49
2022/05/03 07:49:47;;;;;;;3.70;3.30;;;17.30;49.00;18.30;100972.00;;;;4989889;28;20183;-48
2022/05/03 07:52:13;;;;;;;3.47;3.17;;;17.30;49.40;18.40;100965.00;;;;4990009;28;20184;-49
2022/05/03 07:54:43;;;;;;;3.30;3.00;;;17.30;49.20;18.40;100966.00;;;;4989499;28;20200;-49
2022/05/03 07:57:09;;;;;;;4.13;3.10;;;17.30;49.20;18.30;100969.00;;;;4989513;28;20179;-50
2022/05/03 07:59:34;;;;;;;3.43;2.70;;;17.30;49.80;18.30;100972.00;;;;4989732;28;20173;-47
2022/05/03 08:02:01;;;;;;;4.43;2.50;;;17.30;50.20;18.30;100965.00;;;;4989022;28;20192;-49
2022/05/03 08:04:27;;;;;;;2.70;2.50;;;17.30;50.30;18.30;100969.00;;;;4989143;28;20259;-49
2022/05/03 08:06:53;;;;;;;2.80;2.40;;;17.40;50.20;18.30;100974.00;;;;4989650;28;20175;-48
2022/05/03 08:09:19;;;;;;;5.03;2.60;;;17.40;50.80;18.30;100977.00;;;;4989164;28;20172;-49
2022/05/03 08:11:45;;;;;;;2.63;2.40;;;17.40;50.80;18.30;100983.00;;;;4988046;28;20192;-49
2022/05/03 08:14:11;;;;;;;2.40;2.20;;;17.40;50.90;18.40;100974.00;;;;4877421;28;20196;-49
2022/05/03 08:16:38;;;;;;;3.70;2.63;;;17.50;51.20;18.30;100978.00;;;;5007577;28;20198;-49
2022/05/03 08:19:04;;;;;;;2.60;2.20;;;17.40;51.20;18.40;100980.00;;;;5008140;28;20172;-49
2022/05/03 08:21:32;;;;;;;3.93;2.33;;;17.40;51.00;18.40;100977.00;;;;5007879;28;20176;-49
2022/05/03 08:23:59;;;;;;;3.77;2.37;;;17.50;51.20;18.40;100980.00;;;;5007668;28;20214;-49
2022/05/03 08:26:25;;;;;;;3.53;2.50;;;17.50;51.20;18.40;100985.00;;;;5006364;28;20192;-49
2022/05/03 08:28:51;;;;;;;2.83;2.40;;;17.50;51.40;18.40;100979.00;;;;5007913;28;20829;-49
2022/05/03 08:31:16;;;;;;;3.27;2.30;;;17.50;51.30;18.40;100976.00;;;;5007641;28;20232;-49
2022/05/03 08:33:44;;;;;;;4.40;2.33;;;17.40;51.40;18.40;100995.00;;;;5007595;28;20234;-49
2022/05/03 08:36:10;;;;;;;2.83;2.53;;;17.50;51.50;18.40;100997.00;;;;5005585;28;20172;-49
2022/05/03 08:44:04;;;;;;;4.20;2.20;;;17.50;51.70;18.40;100997.00;;;;5007391;28;20211;-49
2022/05/03 08:46:31;;;;;;;2.47;2.27;;;17.50;51.70;18.40;100996.00;;;;5007455;28;20635;-48
2022/05/03 08:49:00;;;;;;;2.57;2.37;;;17.50;51.60;18.40;100990.00;;;;5007595;28;20270;-49
2022/05/03 08:51:25;;;;;;;3.17;2.37;;;17.50;51.60;18.40;100993.00;;;;4988699;28;20248;-49
2022/05/03 08:53:51;;;;;;;2.20;2.10;;;17.50;51.60;18.50;100997.00;;;;4989138;28;20283;-49
2022/05/03 08:56:18;;;;;;;2.40;2.20;;;17.60;51.70;18.50;100986.00;;;;5006546;28;20678;-50
2022/05/03 08:58:44;;;;;;;3.20;2.40;;;17.60;51.80;18.50;100974.00;;;;5009410;28;20189;-50
2022/05/03 09:01:10;;;;;;;5.57;2.30;;;17.50;52.00;18.50;100997.00;;;;4989797;28;20667;-49
2022/05/03 09:03:37;;;;;;;4.60;2.63;;;17.60;52.00;18.50;100990.00;;;;5008199;28;20195;-50
2022/05/03 09:06:04;;;;;;;2.33;2.13;;;17.60;52.00;18.50;100994.00;;;;5007362;28;20667;-48
2022/05/03 09:08:29;;;;;;;4.07;2.13;;;17.60;51.90;18.50;100998.00;;;;5007325;28;20172;-48
2022/05/03 09:10:55;;;;;;;2.43;2.23;;;17.60;51.80;18.50;100999.00;;;;4989649;28;20253;-47
2022/05/03 09:13:23;;;;;;;3.20;2.50;;;17.60;51.80;18.50;100998.00;;;;4952311;28;20191;-48
2022/05/03 09:15:56;;;;;;;3.13;2.30;;;17.60;51.80;18.50;101004.00;;;;5026887;28;20210;-48
2022/05/03 09:18:27;;;;;;;2.70;2.17;;;17.60;51.90;18.60;101005.00;;;;5026737;28;20159;-48
2022/05/03 09:23:47;;;;;;;4.83;2.30;;;17.70;51.80;18.60;100997.00;;;;5026897;28;20209;-48
2022/05/03 09:26:19;;;;;;;4.30;2.40;;;17.70;51.90;18.60;101001.00;;;;5026996;28;20812;-49
2022/05/03 09:28:52;;;;;;;3.57;2.20;;;17.70;52.00;18.60;101014.00;;;;5027337;28;20171;-49
2022/05/03 09:31:45;;;;;;;5.17;2.40;;;17.70;52.10;18.60;101006.00;;;;5027025;28;20195;-48
2022/05/03 09:34:27;;;;;;;2.40;2.20;;;17.80;52.10;18.60;101006.00;;;;5026512;28;20195;-49
2022/05/03 09:37:09;;;;;;;3.53;2.03;;;17.70;52.60;18.60;101005.00;;;;5026796;28;20156;-50
2022/05/03 09:39:43;;;;;;;3.57;2.03;;;17.80;52.00;18.60;100940.00;;;;5027241;28;20160;-49
2022/05/03 09:42:17;;;;;;;3.00;2.10;;;17.70;51.90;18.60;101006.00;;;;5027354;28;20948;-49
2022/05/03 09:45:00;;;;;;;2.83;2.20;;;17.80;52.10;18.60;101007.00;;;;5026495;28;20222;-49
2022/05/03 09:47:28;;;;;;;3.30;2.20;;;17.70;52.10;18.60;100998.00;;;;5027338;28;20175;-49
2022/05/03 09:49:54;;;;;;;2.97;2.10;;;17.80;52.10;18.60;101003.00;;;;5026919;28;20179;-48
2022/05/03 09:52:33;;;;;;;2.50;2.20;;;17.80;52.10;18.70;101007.00;;;;5027136;28;20190;-49
2022/05/03 09:55:06;;;;;;;3.87;2.23;;;17.80;52.10;18.70;101002.00;;;;5025407;28;20202;-49
2022/05/03 09:57:41;;;;;;;2.20;2.00;;;17.80;52.10;18.70;101007.00;;;;5026563;28;20198;-48
2022/05/03 10:00:11;;;;;;;2.40;2.20;;;17.90;52.30;18.70;101008.00;;;;5009019;28;20213;-49
2022/05/03 10:02:40;;;;;;;3.50;2.23;;;17.90;52.30;18.70;101001.00;;;;5006579;28;20285;-49
2022/05/03 10:05:07;;;;;;;2.40;2.30;;;17.90;52.20;18.70;101000.00;;;;5006684;28;20203;-48
2022/05/03 10:07:32;;;;;;;2.50;2.17;;;17.90;52.10;18.70;100987.00;;;;5005371;28;20173;-49
2022/05/03 10:09:58;;;;;;;3.77;2.13;;;18.00;52.40;18.70;101001.00;;;;4989023;28;20243;-50
2022/05/03 10:12:24;;;;;;;2.00;1.90;;;17.90;52.30;18.80;101000.00;;;;4937672;28;20255;-49
2022/05/03 10:14:49;;;;;;;2.53;2.33;;;18.00;52.30;18.80;100991.00;;;;5006267;28;20246;-50
2022/05/03 10:20:38;;;;;;;3.53;2.30;;;18.00;52.30;18.80;100990.00;;;;5006449;28;20241;-49
2022/05/03 10:23:04;;;;;;;2.40;2.20;;;18.00;52.40;18.80;100983.00;;;;5005395;28;20172;-48
2022/05/03 10:25:42;;;;;;;2.50;2.30;;;18.00;52.60;18.90;100994.00;;;;5004899;28;20196;-49
2022/05/03 10:28:08;;;;;;;2.30;2.10;;;18.10;52.40;18.90;100991.00;;;;5006293;28;20212;-47
2022/05/03 10:30:38;;;;;;;2.73;2.30;;;18.10;52.50;18.90;100985.00;;;;5006835;28;20233;-49
2022/05/03 10:33:19;;;;;;;3.30;2.30;;;18.10;52.30;18.90;100986.00;;;;5007404;28;20163;-49
2022/05/03 10:35:48;;;;;;;2.30;2.10;;;18.10;52.30;18.90;100985.00;;;;5008887;28;20206;-49
2022/05/03 10:38:14;;;;;;;3.57;2.10;;;18.10;52.30;18.90;100989.00;;;;5008019;28;20171;-48
2022/05/03 10:40:44;;;;;;;2.50;2.10;;;18.10;52.40;18.90;100987.00;;;;5007241;28;20179;-49
2022/05/03 10:43:25;;;;;;;3.13;2.30;;;18.20;52.60;19.00;100988.00;;;;5005633;28;20187;-48
2022/05/03 10:45:56;;;;;;;3.30;2.50;;;18.20;52.50;19.00;100987.00;;;;5006506;28;20157;-48
2022/05/03 10:48:26;;;;;;;3.90;2.30;;;18.20;52.50;18.80;100982.00;;;;5007646;28;20166;-48
2022/05/03 10:50:58;;;;;;;2.40;2.20;;;18.20;52.50;19.00;100984.00;;;;5011167;28;20203;-49
2022/05/03 10:53:25;;;;;;;2.20;2.00;;;18.30;52.90;19.10;100978.00;;;;5014859;28;20190;-50
2022/05/03 10:56:06;;;;;;;2.50;2.30;;;18.30;52.70;19.10;100982.00;;;;5014105;28;20176;-50
2022/05/03 10:58:34;;;;;;;2.93;2.20;;;18.30;52.60;19.10;100980.00;;;;5015057;28;20176;-49
2022/05/03 11:01:20;;;;;;;2.53;2.27;;;18.40;52.70;19.10;100971.00;;;;5013911;28;20195;-48
2022/05/03 11:03:51;;;;;;;2.47;2.10;;;18.40;52.70;19.10;100956.00;;;;5010506;28;20267;-48
2022/05/03 11:06:19;;;;;;;3.13;2.20;;;18.40;52.80;19.20;100969.00;;;;5010037;28;20185;-48
2022/05/03 11:08:57;;;;;;;2.30;2.10;;;18.40;52.90;19.00;100972.00;;;;5010398;28;20361;-50
2022/05/03 11:11:39;;;;;;;2.30;2.10;;;18.40;53.10;19.20;100968.00;;;;5010130;28;20192;-49
2022/05/03 11:17:02;;;;;;;2.60;2.03;;;18.50;53.50;19.30;100963.00;;;;5010318;28;20154;-48
2022/05/03 11:19:29;;;;;;;4.10;2.40;;;18.50;53.60;19.30;100960.00;;;;5008450;28;20747;-50
2022/05/03 11:21:55;;;;;;;6.67;2.60;;;18.60;53.50;19.30;100962.00;;;;4899733;28;20437;-50
2022/05/03 11:24:23;;;;;;;5.07;2.20;;;18.70;53.50;19.40;100950.00;;;;5009579;28;20226;-49
2022/05/03 11:27:00;;;;;;;3.93;2.43;;;18.70;53.50;19.40;100958.00;;;;5009521;28;20162;-49
2022/05/03 11:29:31;;;;;;;5.63;2.43;;;18.80;53.60;19.50;100960.00;;;;5010060;28;20174;-50
2022/05/03 11:31:59;;;;;;;2.47;2.17;;;18.80;53.60;19.50;100955.00;;;;5009831;28;20697;-51
2022/05/03 11:34:26;;;;;;;4.27;2.23;;;18.80;53.50;19.50;100950.00;;;;5012014;28;20225;-50
2022/05/03 11:36:51;;;;;;;4.43;2.30;;;18.80;53.60;19.60;100937.00;;;;5010310;28;20182;-49
2022/05/03 11:39:17;;;;;;;3.30;2.20;;;18.90;53.60;19.60;100948.00;;;;5009669;28;20171;-48